Aviation Digital Data Service (ADDS)

Output produced by METARs form (0356 UTC 06 March 2015)
found at http://aviationweather.gov/adds/metars/
 
KHKY 060106Z 0601/0624 01010G18KT P6SM OVC040 
     FM060600 01007KT P6SM BKN050 
     FM060900 01005KT P6SM SCT250 
     FM061900 10003KT P6SM FEW250 
     FM062000 17003KT P6SM FEW250